createdAt,value
2023-09-13T00:00:30.264Z,3.63
2023-09-13T00:01:31.942Z,4.10
2023-09-13T00:02:33.555Z,3.83
2023-09-13T00:03:35.369Z,3.55
2023-09-13T00:04:37.072Z,3.88
2023-09-13T00:05:38.912Z,3.73
2023-09-13T00:06:40.570Z,3.72
2023-09-13T00:07:42.086Z,4.10
2023-09-13T00:08:43.673Z,3.38
2023-09-13T00:09:45.269Z,3.55
2023-09-13T00:10:46.881Z,4.22
2023-09-13T00:11:48.538Z,3.50
2023-09-13T00:12:50.027Z,5.07
2023-09-13T00:13:51.681Z,3.83
2023-09-13T00:14:53.428Z,4.25
2023-09-13T00:15:54.987Z,3.77
2023-09-13T00:16:56.542Z,4.05
2023-09-13T00:17:58.181Z,4.82
2023-09-13T00:18:59.813Z,3.92
2023-09-13T00:20:01.414Z,3.75
2023-09-13T00:21:03.035Z,4.00
2023-09-13T00:22:04.698Z,3.97
2023-09-13T00:23:06.277Z,3.70
2023-09-13T00:24:08.222Z,4.13
2023-09-13T00:25:09.816Z,3.35
2023-09-13T00:26:11.423Z,4.10
2023-09-13T00:27:13.084Z,4.18
2023-09-13T00:28:14.706Z,3.63
2023-09-13T00:29:16.365Z,3.63
2023-09-13T00:30:17.958Z,4.15
2023-09-13T00:31:19.599Z,3.60
2023-09-13T00:32:21.149Z,4.28
2023-09-13T00:33:22.644Z,3.60
2023-09-13T00:34:24.162Z,3.55
2023-09-13T00:35:25.697Z,3.55
2023-09-13T00:36:27.210Z,4.33
2023-09-13T00:37:28.717Z,3.95
2023-09-13T00:38:30.343Z,3.83
2023-09-13T00:39:31.838Z,3.88
2023-09-13T00:40:33.482Z,4.32
2023-09-13T00:41:35.061Z,4.03
2023-09-13T00:42:37.032Z,4.05
2023-09-13T00:43:38.569Z,3.08
2023-09-13T00:44:40.171Z,3.90
2023-09-13T00:45:42.337Z,3.80
2023-09-13T00:46:44.973Z,4.23
2023-09-13T00:47:47.159Z,3.78
2023-09-13T00:48:48.811Z,3.60
2023-09-13T00:49:50.598Z,3.72
2023-09-13T00:50:54.535Z,3.97
2023-09-13T00:51:56.938Z,3.33
2023-09-13T00:52:59.186Z,3.88
2023-09-13T00:54:01.223Z,3.90
2023-09-13T00:55:03.773Z,3.65
2023-09-13T00:56:06.519Z,4.00
2023-09-13T00:57:08.069Z,3.77
2023-09-13T00:58:09.831Z,4.05
2023-09-13T00:59:11.476Z,3.92
2023-09-13T01:00:13.516Z,4.20
2023-09-13T01:01:15.627Z,3.80
2023-09-13T01:02:17.313Z,3.65
2023-09-13T01:03:19.309Z,4.00
2023-09-13T01:04:21.116Z,3.95
2023-09-13T01:05:22.756Z,3.80
2023-09-13T01:06:24.388Z,3.80
2023-09-13T01:07:25.896Z,3.20
2023-09-13T01:08:28.153Z,3.20
2023-09-13T01:09:30.092Z,3.78
2023-09-13T01:10:31.615Z,3.70
2023-09-13T01:11:33.171Z,3.95
2023-09-13T01:12:35.075Z,3.75
2023-09-13T01:13:36.630Z,3.75
2023-09-13T01:14:38.157Z,3.38
2023-09-13T01:15:42.488Z,4.05
2023-09-13T01:16:46.920Z,3.50
2023-09-13T01:17:51.736Z,3.20
2023-09-13T01:19:00.645Z,3.75
2023-09-13T01:20:02.327Z,3.70
2023-09-13T01:21:10.116Z,4.30
2023-09-13T01:22:27.564Z,3.42
2023-09-13T01:23:36.591Z,3.78
2023-09-13T01:26:16.182Z,3.70
2023-09-13T01:27:29.725Z,3.38
2023-09-13T01:28:46.738Z,3.92
2023-09-13T01:29:50.328Z,3.60
2023-09-13T01:30:52.502Z,4.00
2023-09-13T01:31:54.300Z,4.38
2023-09-13T01:32:56.477Z,4.32
2023-09-13T01:33:58.199Z,3.55
2023-09-13T01:34:59.752Z,3.70
2023-09-13T01:36:01.339Z,4.35
2023-09-13T01:37:02.972Z,3.42
2023-09-13T01:38:04.813Z,3.30
2023-09-13T01:39:06.643Z,3.25
2023-09-13T01:40:08.800Z,4.53
2023-09-13T01:41:13.095Z,3.30
2023-09-13T01:42:14.851Z,4.03
2023-09-13T01:43:16.364Z,3.90
2023-09-13T01:44:18.056Z,3.88
2023-09-13T01:45:19.859Z,3.75
2023-09-13T01:46:26.295Z,4.00
2023-09-13T01:47:30.348Z,4.00
2023-09-13T01:48:32.320Z,3.50
2023-09-13T01:49:33.901Z,3.80
2023-09-13T01:50:35.924Z,3.63
2023-09-13T01:51:38.316Z,3.78
2023-09-13T01:52:40.017Z,3.20
2023-09-13T01:53:45.402Z,3.65
2023-09-13T01:54:47.221Z,3.50
2023-09-13T01:55:48.789Z,3.78
2023-09-13T01:56:50.398Z,3.53
2023-09-13T01:57:52.009Z,3.45
2023-09-13T01:58:53.581Z,3.50
2023-09-13T01:59:55.334Z,3.38
2023-09-13T02:02:35.262Z,3.63
2023-09-13T02:03:36.893Z,3.65
2023-09-13T02:04:38.536Z,3.70
2023-09-13T02:05:40.089Z,3.83
2023-09-13T02:06:41.610Z,4.10
2023-09-13T02:07:43.161Z,4.07
2023-09-13T02:08:44.745Z,3.50
2023-09-13T02:09:47.198Z,3.90
2023-09-13T02:10:48.754Z,4.07
2023-09-13T02:11:50.263Z,3.57
2023-09-13T02:12:51.931Z,3.50
2023-09-13T02:13:53.474Z,3.90
2023-09-13T02:14:54.976Z,3.80
2023-09-13T02:15:56.571Z,3.55
2023-09-13T02:17:01.282Z,3.50
2023-09-13T02:18:02.964Z,3.75
2023-09-13T02:19:04.660Z,3.70
2023-09-13T02:20:06.856Z,3.97
2023-09-13T02:21:08.487Z,3.20
2023-09-13T02:22:10.095Z,3.50
2023-09-13T02:23:11.652Z,3.33
2023-09-13T02:24:13.532Z,3.55
2023-09-13T02:25:15.151Z,3.78
2023-09-13T02:26:20.384Z,3.83
2023-09-13T02:27:21.955Z,3.17
2023-09-13T02:28:23.531Z,3.47
2023-09-13T02:29:25.614Z,3.70
2023-09-13T02:30:27.195Z,3.47
2023-09-13T02:31:29.392Z,3.22
2023-09-13T02:32:31.168Z,3.43
2023-09-13T02:33:32.708Z,4.03
2023-09-13T02:34:34.325Z,3.83
2023-09-13T02:35:35.919Z,4.13
2023-09-13T02:36:37.387Z,4.20
2023-09-13T02:37:38.971Z,3.63
2023-09-13T02:38:40.557Z,3.75
2023-09-13T02:39:42.570Z,3.60
2023-09-13T02:40:44.184Z,4.20
2023-09-13T02:41:45.753Z,3.70
2023-09-13T02:42:47.264Z,3.50
2023-09-13T02:43:48.851Z,4.38
2023-09-13T02:44:50.552Z,3.55
2023-09-13T02:45:52.163Z,3.72
2023-09-13T02:46:53.791Z,3.60
2023-09-13T02:47:55.384Z,4.00
2023-09-13T02:48:56.980Z,3.78
2023-09-13T02:49:58.564Z,4.10
2023-09-13T02:51:00.112Z,3.92
2023-09-13T02:52:01.737Z,3.50
2023-09-13T02:53:03.375Z,3.57
2023-09-13T02:54:04.945Z,4.10
2023-09-13T02:55:06.903Z,3.08
2023-09-13T02:56:09.040Z,3.53
2023-09-13T02:57:10.573Z,3.60
2023-09-13T02:58:12.137Z,3.78
2023-09-13T02:59:13.802Z,3.70
2023-09-13T03:00:15.700Z,3.42
2023-09-13T03:01:17.392Z,3.67
2023-09-13T03:02:19.156Z,3.30
2023-09-13T03:03:20.875Z,3.77
2023-09-13T03:04:22.520Z,3.97
2023-09-13T03:05:24.080Z,3.70
2023-09-13T03:06:25.677Z,3.65
2023-09-13T03:07:27.258Z,3.65
2023-09-13T03:08:28.895Z,3.60
2023-09-13T03:09:30.441Z,3.55
2023-09-13T03:10:32.109Z,3.40
2023-09-13T03:11:35.119Z,3.63
2023-09-13T03:12:36.651Z,3.47
2023-09-13T03:13:38.218Z,3.33
2023-09-13T03:14:39.845Z,3.75
2023-09-13T03:15:41.455Z,3.42
2023-09-13T03:16:43.033Z,3.72
2023-09-13T03:17:44.670Z,3.55
2023-09-13T03:18:46.836Z,3.83
2023-09-13T03:19:48.327Z,3.90
2023-09-13T03:20:49.838Z,3.67
2023-09-13T03:21:51.393Z,4.38
2023-09-13T03:22:53.019Z,4.03
2023-09-13T03:23:54.611Z,3.47
2023-09-13T03:24:56.216Z,3.60
2023-09-13T03:25:57.778Z,3.38
2023-09-13T03:26:59.427Z,3.95
2023-09-13T03:28:00.993Z,3.67
2023-09-13T03:29:02.680Z,3.80
2023-09-13T03:30:04.439Z,3.72
2023-09-13T03:31:09.754Z,3.70
2023-09-13T03:32:11.385Z,3.83
2023-09-13T03:33:12.954Z,4.13
2023-09-13T03:34:14.622Z,4.00
2023-09-13T03:35:16.219Z,3.78
2023-09-13T03:36:18.053Z,3.20
2023-09-13T03:37:19.658Z,4.18
2023-09-13T03:38:21.200Z,4.05
2023-09-13T03:39:22.735Z,4.38
2023-09-13T03:40:24.338Z,3.95
2023-09-13T03:41:26.452Z,3.72
2023-09-13T03:42:27.989Z,3.90
2023-09-13T03:43:29.661Z,3.38
2023-09-13T03:44:31.164Z,3.97
2023-09-13T03:45:32.724Z,3.72
2023-09-13T03:46:34.454Z,5.47
2023-09-13T03:47:36.234Z,4.88
2023-09-13T03:48:38.529Z,4.07
2023-09-13T03:49:40.096Z,4.13
2023-09-13T03:50:41.710Z,4.07
2023-09-13T03:51:43.257Z,3.47
2023-09-13T03:52:44.781Z,4.28
2023-09-13T03:53:46.957Z,3.95
2023-09-13T03:54:48.718Z,4.30
2023-09-13T03:55:50.301Z,3.70
2023-09-13T03:56:51.876Z,4.25
2023-09-13T03:57:53.492Z,3.90
2023-09-13T03:58:55.418Z,3.80
2023-09-13T03:59:56.959Z,3.80
2023-09-13T04:00:58.577Z,4.13
2023-09-13T04:02:00.142Z,3.80
2023-09-13T04:03:01.829Z,3.83
2023-09-13T04:04:03.794Z,3.88
2023-09-13T04:05:05.680Z,5.40
2023-09-13T04:06:07.548Z,4.68
2023-09-13T04:07:09.187Z,3.80
2023-09-13T04:08:10.734Z,4.47
2023-09-13T04:09:12.283Z,5.25
2023-09-13T04:10:13.900Z,3.85
2023-09-13T04:11:15.547Z,3.65
2023-09-13T04:12:17.116Z,4.45
2023-09-13T04:13:18.726Z,3.83
2023-09-13T04:14:20.408Z,4.15
2023-09-13T04:15:21.991Z,4.93
2023-09-13T04:16:23.581Z,4.25
2023-09-13T04:17:25.213Z,4.57
2023-09-13T04:18:26.747Z,5.07
2023-09-13T04:19:28.327Z,5.03
2023-09-13T04:20:29.815Z,4.40
2023-09-13T04:21:31.335Z,4.80
2023-09-13T04:22:33.089Z,4.50
2023-09-13T04:23:34.610Z,4.30
2023-09-13T04:24:36.152Z,4.30
2023-09-13T04:25:37.708Z,3.97
2023-09-13T04:26:39.330Z,4.22
2023-09-13T04:27:44.385Z,5.15
2023-09-13T04:28:45.859Z,4.70
2023-09-13T04:29:47.435Z,4.13
2023-09-13T04:30:49.294Z,4.85
2023-09-13T04:31:51.034Z,6.10
2023-09-13T04:32:52.719Z,7.80
2023-09-13T04:33:54.943Z,5.63
2023-09-13T04:34:56.749Z,4.07
2023-09-13T04:35:58.288Z,4.70
2023-09-13T04:36:59.851Z,4.55
2023-09-13T04:38:01.408Z,3.88
2023-09-13T04:39:03.051Z,4.03
2023-09-13T04:40:05.169Z,4.53
2023-09-13T04:41:06.766Z,4.78
2023-09-13T04:42:08.344Z,4.72
2023-09-13T04:43:09.902Z,5.20
2023-09-13T04:44:11.424Z,5.38
2023-09-13T04:45:13.022Z,5.28
2023-09-13T04:46:17.475Z,5.03
2023-09-13T04:47:19.048Z,4.07
2023-09-13T04:48:20.627Z,4.63
2023-09-13T04:49:22.216Z,4.47
2023-09-13T04:50:23.900Z,4.72
2023-09-13T04:51:25.437Z,4.35
2023-09-13T04:52:26.988Z,7.45
2023-09-13T04:53:28.618Z,4.38
2023-09-13T04:54:30.613Z,8.30
2023-09-13T04:55:32.184Z,8.52
2023-09-13T04:56:33.789Z,8.20
2023-09-13T04:57:35.278Z,5.38
2023-09-13T04:58:38.728Z,5.50
2023-09-13T04:59:45.447Z,5.32
2023-09-13T05:00:47.021Z,4.95
2023-09-13T05:01:48.680Z,4.80
2023-09-13T05:02:50.399Z,6.70
2023-09-13T05:03:52.161Z,4.85
2023-09-13T05:04:53.831Z,4.85
2023-09-13T05:05:58.106Z,4.30
2023-09-13T05:06:59.665Z,4.37
2023-09-13T05:08:01.264Z,4.25
2023-09-13T05:09:03.099Z,4.55
2023-09-13T05:10:05.053Z,4.40
2023-09-13T05:11:06.689Z,4.90
2023-09-13T05:12:08.324Z,7.28
2023-09-13T05:13:09.948Z,4.30
2023-09-13T05:14:15.368Z,4.07
2023-09-13T05:15:16.882Z,4.10
2023-09-13T05:16:18.828Z,4.72
2023-09-13T05:17:20.365Z,4.53
2023-09-13T05:18:21.858Z,4.78
2023-09-13T05:19:23.504Z,4.78
2023-09-13T05:20:28.332Z,4.50
2023-09-13T05:21:29.987Z,4.15
2023-09-13T05:22:31.679Z,4.10
2023-09-13T05:23:33.239Z,4.57
2023-09-13T05:24:34.924Z,4.45
2023-09-13T05:25:43.347Z,4.05
2023-09-13T05:26:44.863Z,4.50
2023-09-13T05:27:46.395Z,4.43
2023-09-13T05:28:47.960Z,4.60
2023-09-13T05:29:49.530Z,4.50
2023-09-13T05:30:51.158Z,4.30
2023-09-13T05:31:53.264Z,4.50
2023-09-13T05:32:55.933Z,4.35
2023-09-13T05:33:57.552Z,4.55
2023-09-13T05:34:59.184Z,4.80
2023-09-13T05:36:00.974Z,4.45
2023-09-13T05:37:02.547Z,3.97
2023-09-13T05:38:07.251Z,4.50
2023-09-13T05:39:09.175Z,4.88
2023-09-13T05:40:11.127Z,4.65
2023-09-13T05:41:13.319Z,4.78
2023-09-13T05:42:14.857Z,5.05
2023-09-13T05:43:16.518Z,4.97
2023-09-13T05:44:21.255Z,5.30
2023-09-13T05:45:22.922Z,5.78
2023-09-13T05:46:24.621Z,4.88
2023-09-13T05:47:26.264Z,4.80
2023-09-13T05:48:27.802Z,5.60
2023-09-13T05:49:29.521Z,4.97
2023-09-13T05:50:31.283Z,5.43
2023-09-13T05:51:34.263Z,4.72
2023-09-13T05:52:35.800Z,4.70
2023-09-13T05:53:37.293Z,5.10
2023-09-13T05:54:38.813Z,5.03
2023-09-13T05:55:40.756Z,5.53
2023-09-13T05:56:42.549Z,4.50
2023-09-13T05:57:44.147Z,5.00
2023-09-13T05:58:45.716Z,5.10
2023-09-13T05:59:47.356Z,4.60
2023-09-13T06:00:50.239Z,4.95
2023-09-13T06:01:52.097Z,5.47
2023-09-13T06:02:53.801Z,5.25
2023-09-13T06:03:55.463Z,4.40
2023-09-13T06:04:57.100Z,4.47
2023-09-13T06:05:58.735Z,5.28
2023-09-13T06:07:00.342Z,5.40
2023-09-13T06:08:02.135Z,5.13
2023-09-13T06:09:03.765Z,4.97
2023-09-13T06:10:05.659Z,5.00
2023-09-13T06:11:07.256Z,5.50
2023-09-13T06:12:09.015Z,4.80
2023-09-13T06:13:10.671Z,5.03
2023-09-13T06:14:12.401Z,4.35
2023-09-13T06:15:13.959Z,4.72
2023-09-13T06:16:15.537Z,4.10
2023-09-13T06:17:17.107Z,4.55
2023-09-13T06:18:18.676Z,4.93
2023-09-13T06:19:20.659Z,4.60
2023-09-13T06:20:22.490Z,4.45
2023-09-13T06:21:23.995Z,4.20
2023-09-13T06:22:25.684Z,4.53
2023-09-13T06:23:34.314Z,4.07
2023-09-13T06:24:35.883Z,5.18
2023-09-13T06:25:37.477Z,5.60
2023-09-13T06:26:38.956Z,4.72
2023-09-13T06:27:40.541Z,4.93
2023-09-13T06:28:42.321Z,4.65
2023-09-13T06:29:43.963Z,5.20
2023-09-13T06:30:59.952Z,5.53
2023-09-13T06:32:06.335Z,4.18
2023-09-13T06:33:12.222Z,5.05
2023-09-13T06:34:24.416Z,4.93
2023-09-13T06:35:27.134Z,4.65
2023-09-13T06:36:29.437Z,4.55
2023-09-13T06:37:31.755Z,4.93
2023-09-13T06:38:34.483Z,4.78
2023-09-13T06:39:36.434Z,4.20
2023-09-13T06:40:39.002Z,4.93
2023-09-13T06:41:40.777Z,5.30
2023-09-13T06:42:57.915Z,5.40
2023-09-13T06:44:09.582Z,5.93
2023-09-13T06:45:23.802Z,5.50
2023-09-13T06:46:27.959Z,4.45
2023-09-13T06:47:29.917Z,5.28
2023-09-13T06:48:33.011Z,4.78
2023-09-13T06:49:35.473Z,4.70
2023-09-13T06:51:11.554Z,4.57
2023-09-13T06:52:00.532Z,4.90
2023-09-13T06:53:22.647Z,4.85
2023-09-13T06:54:25.860Z,5.15
2023-09-13T06:55:32.342Z,4.38
2023-09-13T06:56:38.986Z,4.93
2023-09-13T06:57:43.363Z,4.63
2023-09-13T06:58:47.888Z,5.25
2023-09-13T06:59:55.335Z,5.00
2023-09-13T07:01:24.086Z,5.10
2023-09-13T07:03:26.691Z,5.37
2023-09-13T07:04:35.909Z,5.07
2023-09-13T07:05:41.801Z,5.15
2023-09-13T07:06:43.520Z,5.55
2023-09-13T07:07:45.096Z,5.90
2023-09-13T07:08:46.963Z,5.93
2023-09-13T07:09:48.823Z,5.38
2023-09-13T07:10:50.553Z,5.85
2023-09-13T07:11:52.221Z,5.65
2023-09-13T07:12:53.905Z,5.05
2023-09-13T07:13:55.614Z,6.03
2023-09-13T07:14:57.403Z,5.20
2023-09-13T07:15:58.920Z,5.78
2023-09-13T07:17:00.652Z,5.68
2023-09-13T07:18:02.300Z,5.35
2023-09-13T07:19:04.740Z,5.15
2023-09-13T07:20:06.993Z,5.93
2023-09-13T07:21:08.512Z,4.88
2023-09-13T07:22:10.130Z,5.68
2023-09-13T07:23:11.697Z,5.18
2023-09-13T07:24:13.294Z,5.80
2023-09-13T07:25:14.850Z,5.45
2023-09-13T07:26:16.365Z,5.03
2023-09-13T07:27:18.058Z,5.20
2023-09-13T07:28:19.619Z,5.40
2023-09-13T07:29:21.178Z,5.72
2023-09-13T07:30:22.715Z,5.90
2023-09-13T07:31:24.391Z,5.68
2023-09-13T07:32:26.451Z,5.63
2023-09-13T07:33:28.033Z,4.55
2023-09-13T07:34:32.095Z,5.00
2023-09-13T07:35:34.896Z,4.90
2023-09-13T07:36:36.405Z,6.07
2023-09-13T07:37:38.025Z,4.97
2023-09-13T07:38:39.642Z,5.00
2023-09-13T07:39:41.132Z,5.13
2023-09-13T07:40:42.714Z,5.43
2023-09-13T07:41:44.238Z,5.82
2023-09-13T07:42:45.739Z,5.30
2023-09-13T07:43:47.243Z,5.82
2023-09-13T07:44:48.933Z,5.83
2023-09-13T07:45:50.986Z,5.38
2023-09-13T07:46:52.602Z,5.18
2023-09-13T07:47:54.342Z,5.13
2023-09-13T07:48:56.061Z,5.82
2023-09-13T07:50:00.729Z,5.50
2023-09-13T07:51:02.432Z,5.07
2023-09-13T07:52:03.993Z,5.50
2023-09-13T07:53:06.766Z,6.05
2023-09-13T07:54:08.633Z,5.53
2023-09-13T07:55:10.216Z,5.80
2023-09-13T07:56:11.765Z,5.82
2023-09-13T07:57:13.373Z,5.53
2023-09-13T07:58:15.016Z,5.88
2023-09-13T07:59:16.661Z,5.47
2023-09-13T08:00:18.342Z,5.15
2023-09-13T08:01:19.967Z,5.15
2023-09-13T08:02:21.518Z,5.80
2023-09-13T08:03:23.108Z,5.82
2023-09-13T08:04:24.722Z,5.50
2023-09-13T08:05:26.516Z,5.93
2023-09-13T08:06:28.034Z,6.00
2023-09-13T08:07:29.568Z,6.10
2023-09-13T08:08:31.189Z,6.07
2023-09-13T08:09:32.689Z,6.15
2023-09-13T08:10:34.217Z,5.60
2023-09-13T08:11:35.700Z,5.35
2023-09-13T08:12:37.337Z,4.90
2023-09-13T08:13:39.175Z,6.45
2023-09-13T08:14:41.555Z,5.30
2023-09-13T08:15:49.364Z,5.13
2023-09-13T08:16:51.889Z,5.40
2023-09-13T08:17:53.583Z,5.30
2023-09-13T08:18:55.194Z,4.93
2023-09-13T08:20:00.302Z,5.25
2023-09-13T08:21:01.923Z,5.72
2023-09-13T08:22:03.637Z,5.00
2023-09-13T08:23:05.362Z,4.63
2023-09-13T08:24:07.051Z,5.03
2023-09-13T08:25:12.075Z,4.50
2023-09-13T08:26:27.229Z,4.40
2023-09-13T08:27:30.215Z,5.28
2023-09-13T08:28:31.886Z,5.00
2023-09-13T08:29:34.799Z,5.00
2023-09-13T08:30:36.491Z,5.05
2023-09-13T08:31:38.177Z,5.57
2023-09-13T08:32:39.709Z,4.57
2023-09-13T08:33:41.336Z,4.78
2023-09-13T08:34:42.935Z,5.00
2023-09-13T08:35:44.562Z,4.30
2023-09-13T08:36:46.046Z,4.73
2023-09-13T08:37:47.823Z,4.28
2023-09-13T08:38:49.456Z,4.55
2023-09-13T08:39:51.074Z,5.00
2023-09-13T08:40:53.080Z,5.15
2023-09-13T08:41:55.672Z,4.68
2023-09-13T08:42:58.109Z,4.82
2023-09-13T08:43:59.740Z,4.97
2023-09-13T08:45:01.447Z,4.75
2023-09-13T08:46:06.636Z,4.68
2023-09-13T08:47:08.632Z,4.87
2023-09-13T08:48:10.344Z,5.07
2023-09-13T08:49:12.056Z,4.93
2023-09-13T08:50:14.918Z,4.55
2023-09-13T08:51:17.713Z,4.35
2023-09-13T08:52:19.726Z,4.55
2023-09-13T08:53:21.566Z,4.75
2023-09-13T08:54:23.717Z,4.78
2023-09-13T08:55:29.681Z,4.28
2023-09-13T08:56:31.931Z,4.20
2023-09-13T08:57:34.906Z,4.43
2023-09-13T08:58:36.778Z,3.72
2023-09-13T08:59:38.298Z,3.28
2023-09-13T09:00:41.201Z,3.72
2023-09-13T09:01:52.964Z,3.95
2023-09-13T09:02:56.082Z,3.72
2023-09-13T09:03:57.939Z,3.90
2023-09-13T09:05:00.679Z,4.18
2023-09-13T09:06:03.052Z,4.20
2023-09-13T09:07:04.833Z,4.05
2023-09-13T09:08:06.681Z,4.50
2023-09-13T09:09:08.504Z,4.35
2023-09-13T09:10:10.779Z,4.07
2023-09-13T09:11:12.416Z,4.00
2023-09-13T09:12:16.516Z,3.70
2023-09-13T09:13:19.393Z,3.80
2023-09-13T09:14:21.680Z,3.78
2023-09-13T09:15:23.864Z,3.83
2023-09-13T09:16:26.272Z,3.80
2023-09-13T09:17:29.300Z,3.40
2023-09-13T09:18:33.139Z,3.90
2023-09-13T09:19:34.735Z,3.53
2023-09-13T09:20:38.649Z,4.15
2023-09-13T09:21:40.451Z,3.92
2023-09-13T09:22:42.596Z,3.40
2023-09-13T09:23:44.134Z,4.18
2023-09-13T09:24:47.287Z,4.32
2023-09-13T09:25:51.631Z,3.85
2023-09-13T09:26:55.579Z,4.25
2023-09-13T09:27:57.236Z,3.72
2023-09-13T09:29:14.906Z,3.90
2023-09-13T09:30:16.620Z,3.55
2023-09-13T09:31:19.213Z,4.95
2023-09-13T09:32:21.669Z,3.55
2023-09-13T09:33:26.972Z,3.60
2023-09-13T09:34:32.170Z,3.85
2023-09-13T09:35:34.414Z,3.60
2023-09-13T09:36:42.470Z,3.53
2023-09-13T09:37:44.200Z,3.58
2023-09-13T09:38:46.353Z,3.40
2023-09-13T09:39:48.923Z,3.60
2023-09-13T09:40:50.964Z,3.58
2023-09-13T09:41:58.750Z,3.70
2023-09-13T09:43:00.402Z,4.00
2023-09-13T09:44:02.748Z,3.42
2023-09-13T09:45:04.982Z,3.67
2023-09-13T09:46:07.205Z,3.75
2023-09-13T09:47:15.542Z,3.03
2023-09-13T09:48:17.176Z,3.60
2023-09-13T09:49:18.873Z,3.40
2023-09-13T09:50:20.590Z,3.83
2023-09-13T09:51:22.285Z,3.92
2023-09-13T09:52:24.066Z,3.92
2023-09-13T09:53:25.804Z,4.03
2023-09-13T09:54:27.729Z,3.60
2023-09-13T09:55:29.498Z,3.50
2023-09-13T09:56:31.193Z,3.63
2023-09-13T09:57:32.796Z,3.70
2023-09-13T09:58:34.779Z,3.75
2023-09-13T09:59:36.996Z,3.47
2023-09-13T10:00:51.774Z,3.77
2023-09-13T10:01:57.897Z,3.70
2023-09-13T10:02:59.869Z,3.53
2023-09-13T10:04:11.632Z,3.53
2023-09-13T10:05:13.852Z,3.67
2023-09-13T10:06:16.383Z,3.53
2023-09-13T10:07:18.177Z,3.85
2023-09-13T10:08:19.846Z,3.67
2023-09-13T10:09:21.602Z,3.83
2023-09-13T10:10:32.863Z,4.43
2023-09-13T10:11:34.484Z,3.53
2023-09-13T10:12:43.846Z,3.55
2023-09-13T10:13:45.703Z,3.63
2023-09-13T10:14:47.341Z,3.53
2023-09-13T10:15:48.972Z,3.70
2023-09-13T10:16:50.679Z,3.70
2023-09-13T10:17:54.625Z,3.88
2023-09-13T10:18:58.719Z,3.53
2023-09-13T10:20:00.647Z,3.47
2023-09-13T10:21:04.307Z,3.67
2023-09-13T10:22:05.900Z,3.70
2023-09-13T10:23:08.627Z,3.03
2023-09-13T10:24:10.649Z,3.67
2023-09-13T10:25:12.664Z,3.90
2023-09-13T10:26:14.537Z,4.00
2023-09-13T10:27:17.076Z,3.83
2023-09-13T10:28:19.552Z,3.90
2023-09-13T10:29:39.164Z,3.63
2023-09-13T10:30:42.143Z,3.80
2023-09-13T10:31:47.886Z,3.85
2023-09-13T10:32:51.606Z,5.57
2023-09-13T10:33:53.815Z,3.80
2023-09-13T10:34:56.184Z,3.60
2023-09-13T10:35:59.529Z,3.72
2023-09-13T10:37:01.059Z,3.47
2023-09-13T10:38:12.290Z,3.83
2023-09-13T10:39:25.886Z,3.65
2023-09-13T10:40:27.408Z,3.55
2023-09-13T10:41:32.246Z,3.50
2023-09-13T10:42:33.855Z,3.75
2023-09-13T10:43:36.158Z,3.57
2023-09-13T10:44:38.378Z,3.80
2023-09-13T10:45:40.612Z,4.10
2023-09-13T10:46:42.502Z,3.97
2023-09-13T10:47:44.657Z,3.38
2023-09-13T10:48:47.207Z,4.10
2023-09-13T10:49:49.844Z,3.67
2023-09-13T10:50:53.015Z,3.60
2023-09-13T10:51:55.795Z,3.90
2023-09-13T10:52:57.418Z,3.70
2023-09-13T10:54:01.723Z,3.43
2023-09-13T10:55:07.162Z,3.63
2023-09-13T10:56:09.903Z,3.80
2023-09-13T10:57:12.574Z,4.07
2023-09-13T10:58:14.755Z,3.53
2023-09-13T10:59:18.027Z,3.80
2023-09-13T11:00:20.340Z,3.75
2023-09-13T11:01:24.425Z,3.50
2023-09-13T11:02:27.835Z,3.50
2023-09-13T11:03:30.846Z,3.75
2023-09-13T11:04:34.014Z,3.37
2023-09-13T11:05:38.307Z,3.72
2023-09-13T11:06:41.652Z,3.45
2023-09-13T11:07:45.006Z,3.13
2023-09-13T11:08:48.594Z,3.60
2023-09-13T11:09:50.468Z,3.30
2023-09-13T11:10:53.880Z,3.70
2023-09-13T11:11:56.788Z,3.33
2023-09-13T11:13:11.115Z,3.58
2023-09-13T11:14:12.773Z,4.13
2023-09-13T11:15:14.987Z,3.07
2023-09-13T11:16:18.164Z,3.67
2023-09-13T11:17:40.928Z,3.75
2023-09-13T11:18:53.968Z,3.80
2023-09-13T11:20:16.541Z,3.10
2023-09-13T11:21:26.299Z,3.75
2023-09-13T11:22:40.478Z,3.47
2023-09-13T11:24:02.786Z,3.65
2023-09-13T11:25:22.214Z,3.55
2023-09-13T11:26:46.424Z,3.20
2023-09-13T11:27:48.635Z,4.20
2023-09-13T11:28:50.611Z,3.70
2023-09-13T11:29:57.977Z,3.60
2023-09-13T11:31:00.533Z,3.53
2023-09-13T11:32:05.825Z,3.17
2023-09-13T11:33:07.499Z,4.53
2023-09-13T11:34:14.421Z,3.65
2023-09-13T11:35:16.046Z,3.47
2023-09-13T11:36:17.747Z,3.95
2023-09-13T11:37:19.929Z,3.33
2023-09-13T11:38:22.514Z,3.50
2023-09-13T11:39:24.078Z,4.40
2023-09-13T11:40:25.981Z,3.08
2023-09-13T11:41:27.600Z,3.00
2023-09-13T11:42:33.853Z,3.38
2023-09-13T11:43:37.521Z,4.00
2023-09-13T11:44:54.139Z,3.10
2023-09-13T11:46:00.872Z,3.70
2023-09-13T11:47:03.011Z,3.45
2023-09-13T11:48:05.057Z,3.03
2023-09-13T11:49:07.052Z,3.37
2023-09-13T11:50:13.954Z,3.72
2023-09-13T11:51:22.017Z,3.72
2023-09-13T11:52:29.893Z,3.60
2023-09-13T11:53:32.770Z,3.65
2023-09-13T11:55:03.911Z,3.20
2023-09-13T11:56:12.755Z,3.20
2023-09-13T11:57:24.020Z,3.60
2023-09-13T11:58:50.901Z,3.40
2023-09-13T12:00:01.442Z,3.30
2023-09-13T12:01:05.061Z,3.97
2023-09-13T12:02:09.896Z,3.75
2023-09-13T12:03:12.553Z,3.58
2023-09-13T12:04:47.312Z,3.40
2023-09-13T12:06:48.429Z,3.40
2023-09-13T12:07:53.377Z,3.63
2023-09-13T12:08:56.323Z,3.60
2023-09-13T12:10:04.204Z,3.38
2023-09-13T12:11:12.000Z,3.58
2023-09-13T12:12:16.167Z,3.10
2023-09-13T12:13:33.971Z,3.05
2023-09-13T12:14:58.254Z,3.05
2023-09-13T12:17:04.701Z,3.72
2023-09-13T12:18:07.496Z,2.90
2023-09-13T12:19:10.901Z,3.03
2023-09-13T12:20:12.432Z,4.10
2023-09-13T12:21:14.388Z,2.90
2023-09-13T12:22:16.652Z,3.28
2023-09-13T12:23:18.464Z,3.73
2023-09-13T12:24:20.929Z,3.35
2023-09-13T12:25:22.632Z,3.20
2023-09-13T12:26:24.355Z,3.38
2023-09-13T12:27:26.038Z,3.17
2023-09-13T12:28:27.683Z,3.05
2023-09-13T12:29:29.357Z,3.38
2023-09-13T12:30:30.937Z,3.13
2023-09-13T12:31:32.919Z,3.20
2023-09-13T12:32:34.817Z,2.97
2023-09-13T12:33:37.353Z,3.20
2023-09-13T12:34:38.929Z,3.42
2023-09-13T12:35:41.157Z,3.30
2023-09-13T12:36:43.068Z,2.90
2023-09-13T12:37:56.420Z,6.53
2023-09-13T12:38:57.988Z,3.20
2023-09-13T12:39:59.570Z,3.40
2023-09-13T12:41:01.183Z,2.95
2023-09-13T12:42:06.984Z,3.22
2023-09-13T12:43:08.698Z,2.95
2023-09-13T12:44:11.058Z,3.00
2023-09-13T12:45:12.652Z,3.40
2023-09-13T12:46:23.875Z,3.33
2023-09-13T12:47:25.954Z,2.88
2023-09-13T12:48:27.715Z,3.35
2023-09-13T12:49:29.398Z,3.92
2023-09-13T12:50:34.673Z,3.25
2023-09-13T12:51:37.176Z,3.40
2023-09-13T12:52:38.791Z,3.13
2023-09-13T12:53:40.373Z,3.25
2023-09-13T12:54:42.047Z,3.20
2023-09-13T12:55:44.093Z,3.05
2023-09-13T12:56:45.803Z,3.00
2023-09-13T12:57:47.373Z,3.00
2023-09-13T12:58:55.451Z,3.35
2023-09-13T12:59:56.919Z,3.25
2023-09-13T13:01:02.085Z,3.15
2023-09-13T13:02:03.667Z,3.13
2023-09-13T13:03:05.467Z,3.33
2023-09-13T13:04:11.299Z,3.00
2023-09-13T13:05:16.549Z,3.70
2023-09-13T13:06:18.144Z,3.75
2023-09-13T13:07:23.163Z,3.25
2023-09-13T13:08:37.004Z,2.85
2023-09-13T13:09:39.380Z,3.15
2023-09-13T13:11:00.616Z,2.80
2023-09-13T13:12:02.357Z,3.30
2023-09-13T13:13:04.139Z,2.75
2023-09-13T13:14:12.538Z,2.90
2023-09-13T13:15:14.172Z,3.15
2023-09-13T13:16:17.285Z,3.00
2023-09-13T13:17:18.880Z,3.05
2023-09-13T13:18:20.394Z,3.00
2023-09-13T13:22:59.231Z,3.17
2023-09-13T13:24:00.923Z,3.33
2023-09-13T13:25:02.643Z,2.90
2023-09-13T13:26:04.316Z,2.60
2023-09-13T13:27:06.041Z,3.30
2023-09-13T13:28:07.553Z,2.85
2023-09-13T13:29:09.151Z,3.10
2023-09-13T13:30:10.903Z,3.20
2023-09-13T13:31:14.010Z,3.15
2023-09-13T13:32:15.597Z,2.90
2023-09-13T13:33:17.108Z,3.55
2023-09-13T13:34:18.626Z,3.15
2023-09-13T13:35:20.213Z,3.80
2023-09-13T13:36:21.828Z,3.22
2023-09-13T13:37:23.731Z,2.80
2023-09-13T13:38:25.400Z,3.15
2023-09-13T13:39:26.986Z,3.25
2023-09-13T13:40:28.573Z,3.30
2023-09-13T13:41:30.296Z,3.28
2023-09-13T13:42:31.859Z,2.90
2023-09-13T13:43:33.670Z,3.28
2023-09-13T13:44:35.239Z,3.50
2023-09-13T13:45:36.792Z,3.22
2023-09-13T13:46:38.475Z,3.17
2023-09-13T13:47:40.126Z,3.07
2023-09-13T13:48:44.293Z,2.65
2023-09-13T13:49:46.009Z,3.13
2023-09-13T13:50:47.571Z,2.67
2023-09-13T13:51:49.181Z,2.88
2023-09-13T13:52:50.727Z,2.97
2023-09-13T13:53:52.210Z,2.80
2023-09-13T13:54:54.595Z,3.05
2023-09-13T13:55:59.408Z,3.28
2023-09-13T13:57:01.006Z,2.70
2023-09-13T13:58:02.535Z,3.13
2023-09-13T13:59:04.022Z,3.00
2023-09-13T14:00:05.953Z,3.20
2023-09-13T14:01:07.461Z,3.33
2023-09-13T14:02:09.187Z,3.50
2023-09-13T14:03:10.770Z,2.97
2023-09-13T14:04:12.512Z,3.20
2023-09-13T14:05:14.254Z,2.83
2023-09-13T14:06:15.940Z,2.70
2023-09-13T14:07:17.487Z,3.05
2023-09-13T14:08:22.926Z,2.93
2023-09-13T14:09:24.502Z,2.97